createdAt,value
2023-03-12T00:02:21.581Z,96.49
2023-03-12T00:04:48.487Z,96.67
2023-03-12T00:07:16.236Z,96.01
2023-03-12T00:09:42.852Z,96.59
2023-03-12T00:12:09.737Z,96.06
2023-03-12T00:14:36.815Z,96.16
2023-03-12T00:17:03.505Z,96.61
2023-03-12T00:19:30.164Z,96.17
2023-03-12T00:21:57.240Z,96.25
2023-03-12T00:24:24.147Z,96.96
2023-03-12T00:26:50.906Z,96.83
2023-03-12T00:29:17.557Z,96.33
2023-03-12T00:31:44.332Z,96.79
2023-03-12T00:34:11.322Z,96.54
2023-03-12T00:36:38.209Z,96.78
2023-03-12T00:39:05.201Z,96.68
2023-03-12T00:41:31.830Z,95.54
2023-03-12T00:43:58.940Z,96.36
2023-03-12T00:46:25.739Z,96.57
2023-03-12T00:48:53.075Z,96.65
2023-03-12T00:51:20.086Z,96.77
2023-03-12T00:53:46.876Z,96.86
2023-03-12T00:56:13.952Z,96.81
2023-03-12T00:58:42.800Z,96.86
2023-03-12T01:01:11.545Z,97.36
2023-03-12T01:03:38.537Z,96.83
2023-03-12T01:06:06.222Z,97.53
2023-03-12T01:08:33.917Z,97.38
2023-03-12T01:11:00.733Z,97.52
2023-03-12T01:13:27.398Z,97.28
2023-03-12T01:15:54.041Z,97.37
2023-03-12T01:18:20.617Z,97.73
2023-03-12T01:20:47.405Z,98.74
2023-03-12T01:23:14.355Z,98.70
2023-03-12T01:25:41.360Z,98.67
2023-03-12T01:28:08.088Z,98.59
2023-03-12T01:30:34.876Z,98.52
2023-03-12T01:33:01.466Z,98.25
2023-03-12T01:35:28.087Z,98.30
2023-03-12T01:37:56.149Z,98.38
2023-03-12T01:40:29.179Z,98.28
2023-03-12T01:42:57.484Z,98.19
2023-03-12T01:45:58.397Z,98.51
2023-03-12T01:48:25.908Z,99.03
2023-03-12T01:50:52.595Z,99.18
2023-03-12T01:53:19.293Z,99.68
2023-03-12T01:55:46.010Z,99.79
2023-03-12T01:58:12.788Z,99.82
2023-03-12T02:00:39.694Z,99.88
2023-03-12T02:03:08.774Z,99.17
2023-03-12T02:06:08.688Z,99.29
2023-03-12T02:08:43.013Z,99.21
2023-03-12T02:11:10.396Z,99.28
2023-03-12T02:13:37.446Z,99.43
2023-03-12T02:16:04.519Z,99.89
2023-03-12T02:18:31.566Z,99.65
2023-03-12T02:21:22.790Z,100.00
2023-03-12T02:24:10.973Z,99.89
2023-03-12T02:26:39.161Z,99.65
2023-03-12T02:29:08.858Z,99.76
2023-03-12T02:31:43.171Z,99.94
2023-03-12T02:34:10.069Z,100.00
2023-03-12T02:36:36.776Z,99.94
2023-03-12T02:39:03.983Z,99.78
2023-03-12T02:41:39.057Z,99.77
2023-03-12T02:44:18.708Z,100.00
2023-03-12T02:46:54.100Z,100.00
2023-03-12T02:49:23.780Z,100.00
2023-03-12T02:51:51.115Z,100.00
2023-03-12T02:54:19.551Z,100.00
2023-03-12T02:56:46.906Z,100.00
2023-03-12T02:59:14.434Z,100.00
2023-03-12T03:01:41.689Z,100.00
2023-03-12T03:04:09.957Z,100.00
2023-03-12T03:06:39.679Z,100.00
2023-03-12T03:09:07.353Z,100.00
2023-03-12T03:11:34.275Z,100.00
2023-03-12T03:14:01.052Z,100.00
2023-03-12T03:16:27.731Z,100.00
2023-03-12T03:18:54.321Z,100.00
2023-03-12T03:21:21.029Z,100.00
2023-03-12T03:23:50.231Z,100.00
2023-03-12T03:26:20.988Z,100.00
2023-03-12T03:28:47.828Z,100.00
2023-03-12T03:31:14.648Z,100.00
2023-03-12T03:33:41.596Z,100.00
2023-03-12T03:36:09.395Z,100.00
2023-03-12T03:38:36.925Z,100.00
2023-03-12T03:41:04.095Z,100.00
2023-03-12T03:43:30.949Z,100.00
2023-03-12T03:45:59.260Z,100.00
2023-03-12T03:48:26.162Z,100.00
2023-03-12T03:50:53.007Z,100.00
2023-03-12T03:53:20.206Z,100.00
2023-03-12T03:55:47.024Z,100.00
2023-03-12T03:58:14.144Z,100.00
2023-03-12T04:00:40.772Z,100.00
2023-03-12T04:03:07.534Z,100.00
2023-03-12T04:05:34.326Z,100.00
2023-03-12T04:08:03.264Z,100.00
2023-03-12T04:10:30.507Z,99.65
2023-03-12T04:12:57.610Z,99.33
2023-03-12T04:15:25.134Z,97.02
2023-03-12T04:17:51.795Z,97.13
2023-03-12T04:20:18.624Z,96.62
2023-03-12T04:22:45.253Z,96.30
2023-03-12T04:25:12.127Z,95.89
2023-03-12T04:27:38.723Z,95.74
2023-03-12T04:30:05.831Z,95.80
2023-03-12T04:32:32.670Z,95.51
2023-03-12T04:34:59.303Z,95.43
2023-03-12T04:37:26.310Z,96.06
2023-03-12T04:39:52.942Z,95.92
2023-03-12T04:42:19.571Z,96.08
2023-03-12T04:44:46.329Z,95.90
2023-03-12T04:47:12.987Z,95.76
2023-03-12T04:49:40.100Z,95.69
2023-03-12T04:52:06.999Z,95.87
2023-03-12T04:54:33.918Z,94.65
2023-03-12T04:57:00.483Z,93.71
2023-03-12T04:59:27.252Z,93.01
2023-03-12T05:01:53.854Z,92.14
2023-03-12T05:04:20.496Z,91.04
2023-03-12T05:06:47.157Z,91.00
2023-03-12T05:09:13.916Z,92.68
2023-03-12T05:11:40.716Z,93.85
2023-03-12T05:14:07.338Z,94.61
2023-03-12T05:16:34.123Z,94.10
2023-03-12T05:19:02.380Z,93.17
2023-03-12T05:21:29.151Z,90.99
2023-03-12T05:23:56.370Z,89.77
2023-03-12T05:26:26.337Z,87.82
2023-03-12T05:28:52.957Z,84.10
2023-03-12T05:31:20.514Z,80.35
2023-03-12T05:33:48.339Z,80.70
2023-03-12T05:36:16.705Z,80.91
2023-03-12T05:38:43.546Z,80.02
2023-03-12T05:41:19.651Z,75.37
2023-03-12T05:43:46.228Z,70.71
2023-03-12T05:46:13.265Z,66.01
2023-03-12T05:48:40.152Z,63.84
2023-03-12T05:51:06.845Z,63.41
2023-03-12T05:53:33.603Z,61.25
2023-03-12T05:56:13.007Z,61.40
2023-03-12T05:58:40.036Z,60.35
2023-03-12T06:01:15.185Z,60.21
2023-03-12T06:03:43.137Z,59.16
2023-03-12T06:06:10.525Z,59.42
2023-03-12T06:08:37.256Z,59.96
2023-03-12T06:11:04.524Z,59.78
2023-03-12T06:13:31.463Z,59.52
2023-03-12T06:16:20.624Z,60.30
2023-03-12T06:18:48.137Z,59.39
2023-03-12T06:21:23.411Z,58.61
2023-03-12T06:23:50.410Z,59.16
2023-03-12T06:26:17.776Z,58.70
2023-03-12T06:28:45.723Z,58.02
2023-03-12T06:31:12.344Z,57.66
2023-03-12T06:33:39.391Z,58.24
2023-03-12T06:36:07.926Z,58.22
2023-03-12T06:38:35.749Z,57.77
2023-03-12T06:41:03.725Z,58.28
2023-03-12T06:43:32.354Z,60.21
2023-03-12T06:46:00.743Z,61.32
2023-03-12T06:48:29.248Z,61.10
2023-03-12T06:50:56.608Z,61.98
2023-03-12T06:53:25.330Z,61.02
2023-03-12T06:55:52.709Z,60.61
2023-03-12T06:58:19.775Z,60.88
2023-03-12T07:00:46.352Z,60.00
2023-03-12T07:03:12.979Z,59.62
2023-03-12T07:05:39.878Z,59.55
2023-03-12T07:08:06.602Z,58.88
2023-03-12T07:10:33.343Z,59.54
2023-03-12T07:13:00.104Z,58.68
2023-03-12T07:15:26.792Z,58.86
2023-03-12T07:17:53.341Z,58.70
2023-03-12T07:20:20.493Z,59.41
2023-03-12T07:22:47.204Z,60.19
2023-03-12T07:25:13.930Z,60.40
2023-03-12T07:27:40.576Z,60.50
2023-03-12T07:30:07.852Z,59.95
2023-03-12T07:32:36.789Z,59.77
2023-03-12T07:35:05.153Z,60.02
2023-03-12T07:37:31.820Z,59.58
2023-03-12T07:39:58.489Z,58.87
2023-03-12T07:42:25.455Z,58.60
2023-03-12T07:44:52.019Z,57.64
2023-03-12T07:47:24.193Z,58.33
2023-03-12T07:49:51.715Z,59.19
2023-03-12T07:52:20.336Z,59.57
2023-03-12T07:54:47.182Z,60.99
2023-03-12T07:57:14.391Z,60.79
2023-03-12T07:59:41.176Z,61.15
2023-03-12T08:02:10.271Z,61.33
2023-03-12T08:04:37.076Z,60.21
2023-03-12T08:07:05.378Z,60.69
2023-03-12T08:09:33.745Z,60.49
2023-03-12T08:12:00.461Z,60.66
2023-03-12T08:14:31.704Z,60.03
2023-03-12T08:16:58.801Z,60.30
2023-03-12T08:19:25.934Z,61.69
2023-03-12T08:21:53.406Z,61.37
2023-03-12T08:24:21.701Z,60.60
2023-03-12T08:26:48.691Z,61.45
2023-03-12T08:29:16.430Z,61.30
2023-03-12T08:32:01.542Z,60.74
2023-03-12T08:34:30.220Z,60.56
2023-03-12T08:36:56.845Z,60.48
2023-03-12T08:39:23.431Z,61.40
2023-03-12T08:41:50.101Z,62.66
2023-03-12T08:44:16.663Z,61.24
2023-03-12T08:46:43.613Z,62.27
2023-03-12T08:49:10.296Z,61.72
2023-03-12T08:51:36.842Z,61.58
2023-03-12T08:54:03.526Z,60.91
2023-03-12T08:56:30.308Z,60.95
2023-03-12T08:58:58.538Z,62.33
2023-03-12T09:01:25.934Z,61.83
2023-03-12T09:03:55.325Z,62.39
2023-03-12T09:06:22.152Z,62.00
2023-03-12T09:08:49.491Z,63.02
2023-03-12T09:11:16.230Z,62.73
2023-03-12T09:14:03.942Z,62.46
2023-03-12T09:16:30.284Z,62.62
2023-03-12T09:18:57.000Z,62.96
2023-03-12T09:21:23.708Z,62.66
2023-03-12T09:23:50.274Z,63.15
2023-03-12T09:26:16.937Z,63.05
2023-03-12T09:28:44.902Z,63.12
2023-03-12T09:31:12.344Z,62.77
2023-03-12T09:33:39.170Z,62.81
2023-03-12T09:36:06.142Z,63.05
2023-03-12T09:38:35.644Z,63.11
2023-03-12T09:41:05.308Z,62.73
2023-03-12T09:43:42.902Z,62.80
2023-03-12T09:46:15.556Z,62.95
2023-03-12T09:48:42.348Z,62.54
2023-03-12T09:51:34.026Z,63.22
2023-03-12T09:54:07.653Z,62.38
2023-03-12T09:56:35.084Z,62.18
2023-03-12T09:59:02.051Z,62.81
2023-03-12T10:01:52.292Z,63.30
2023-03-12T10:04:58.145Z,61.60
2023-03-12T10:07:44.264Z,62.01
2023-03-12T10:10:16.835Z,62.42
2023-03-12T10:12:53.564Z,62.16
2023-03-12T10:15:31.548Z,62.63
2023-03-12T10:18:03.381Z,63.04
2023-03-12T10:21:05.013Z,62.51
2023-03-12T10:23:59.884Z,61.85
2023-03-12T10:26:32.271Z,62.12
2023-03-12T10:29:06.563Z,61.65
2023-03-12T10:31:40.878Z,61.93
2023-03-12T10:34:32.996Z,61.52
2023-03-12T10:37:10.915Z,60.78
2023-03-12T10:39:38.101Z,60.88
2023-03-12T10:42:15.068Z,61.93
2023-03-12T10:44:41.988Z,62.32
2023-03-12T10:47:17.649Z,61.71
2023-03-12T10:49:46.784Z,61.16
2023-03-12T10:52:17.848Z,62.00
2023-03-12T10:54:47.694Z,62.62
2023-03-12T10:57:15.824Z,61.81
2023-03-12T10:59:45.611Z,61.35
2023-03-12T11:02:33.593Z,61.13
2023-03-12T11:05:02.598Z,62.56
2023-03-12T11:07:32.348Z,61.25
2023-03-12T11:10:08.329Z,61.83
2023-03-12T11:12:54.021Z,62.29
2023-03-12T11:15:26.421Z,62.33
2023-03-12T11:17:53.114Z,60.73
2023-03-12T11:20:22.903Z,61.31
2023-03-12T11:22:51.504Z,59.73
2023-03-12T11:25:25.768Z,60.30
2023-03-12T11:27:59.326Z,60.31
2023-03-12T11:30:46.623Z,59.32
2023-03-12T11:33:13.627Z,60.66
2023-03-12T11:35:43.430Z,59.46
2023-03-12T11:38:16.034Z,59.28
2023-03-12T11:40:57.979Z,60.66
2023-03-12T11:44:04.141Z,60.88
2023-03-12T11:46:56.391Z,62.14
2023-03-12T11:49:36.253Z,61.98
2023-03-12T11:52:10.986Z,61.75
2023-03-12T11:55:00.831Z,60.62
2023-03-12T11:57:27.411Z,59.77
2023-03-12T12:00:17.564Z,59.65
2023-03-12T12:02:53.284Z,59.69
2023-03-12T12:05:25.806Z,60.70
2023-03-12T12:08:04.528Z,61.07
2023-03-12T12:10:33.842Z,62.79
2023-03-12T12:13:25.321Z,62.18
2023-03-12T12:16:05.086Z,62.04
2023-03-12T12:19:14.272Z,62.11
2023-03-12T12:21:44.837Z,61.64
2023-03-12T12:24:46.615Z,61.55
2023-03-12T12:27:26.574Z,60.63
2023-03-12T12:30:17.415Z,61.14
2023-03-12T12:32:52.828Z,61.65
2023-03-12T12:35:35.493Z,61.07
2023-03-12T12:38:36.986Z,60.97
2023-03-12T12:41:20.849Z,60.66
2023-03-12T12:43:51.570Z,60.25
2023-03-12T12:46:26.762Z,60.36
2023-03-12T12:48:57.409Z,60.33
2023-03-12T12:51:31.329Z,60.38
2023-03-12T12:54:07.097Z,61.11
2023-03-12T12:56:42.685Z,60.92
2023-03-12T12:59:25.240Z,61.25
2023-03-12T13:01:55.320Z,61.24
2023-03-12T13:04:37.736Z,61.20
2023-03-12T13:07:04.607Z,61.48
2023-03-12T13:09:52.868Z,61.57
2023-03-12T13:12:29.611Z,61.82
2023-03-12T13:14:58.137Z,61.14
2023-03-12T13:17:25.480Z,61.85
2023-03-12T13:20:01.462Z,61.91
2023-03-12T13:22:40.670Z,62.56
2023-03-12T13:25:20.475Z,62.29
2023-03-12T13:27:47.101Z,61.23
2023-03-12T13:30:51.496Z,61.14
2023-03-12T13:33:21.803Z,61.26
2023-03-12T13:36:12.066Z,61.21
2023-03-12T13:39:01.814Z,62.56
2023-03-12T13:41:47.181Z,61.90
2023-03-12T13:44:25.246Z,61.67
2023-03-12T13:47:02.827Z,61.11
2023-03-12T13:50:07.241Z,61.69
2023-03-12T13:52:42.522Z,62.61
2023-03-12T13:55:14.811Z,62.47
2023-03-12T13:57:50.022Z,61.95
2023-03-12T14:00:36.316Z,61.90
2023-03-12T14:03:27.539Z,61.62
2023-03-12T14:05:58.556Z,61.40
2023-03-12T14:08:56.156Z,61.68
2023-03-12T14:11:53.438Z,61.14
2023-03-12T14:14:29.123Z,61.61
2023-03-12T14:17:01.805Z,61.65
2023-03-12T14:19:31.810Z,61.33
2023-03-12T14:22:02.972Z,61.35
2023-03-12T14:24:37.378Z,61.39
2023-03-12T14:27:07.023Z,61.26
2023-03-12T14:29:48.518Z,61.22
2023-03-12T14:32:28.488Z,61.16
2023-03-12T14:35:17.061Z,61.43
2023-03-12T14:38:07.091Z,61.21
2023-03-12T14:40:46.871Z,61.29
2023-03-12T14:43:21.853Z,60.77
2023-03-12T14:45:52.217Z,60.96
2023-03-12T14:48:24.201Z,61.02
2023-03-12T14:50:51.119Z,61.42
2023-03-12T14:53:24.512Z,61.60
2023-03-12T14:56:12.956Z,61.80
2023-03-12T14:58:49.188Z,62.06
2023-03-12T15:01:23.953Z,62.17
2023-03-12T15:04:01.266Z,62.19
2023-03-12T15:06:37.652Z,61.77
2023-03-12T15:09:07.063Z,61.82
2023-03-12T15:11:37.124Z,61.85
2023-03-12T15:14:08.074Z,62.33
2023-03-12T15:16:35.886Z,62.60
2023-03-12T15:19:04.231Z,62.48
2023-03-12T15:21:35.715Z,62.63
2023-03-12T15:24:03.632Z,62.69
2023-03-12T15:26:34.553Z,62.26
2023-03-12T15:29:03.224Z,62.41
2023-03-12T15:31:47.610Z,61.98
2023-03-12T15:34:27.213Z,62.14
2023-03-12T15:36:55.104Z,62.24
2023-03-12T15:39:28.461Z,62.28
2023-03-12T15:41:56.555Z,62.58
2023-03-12T15:44:26.840Z,62.70
2023-03-12T15:46:57.174Z,62.75
2023-03-12T15:49:30.981Z,62.58
2023-03-12T15:52:06.228Z,62.79
2023-03-12T15:54:33.697Z,62.61
2023-03-12T15:57:21.444Z,62.83
2023-03-12T16:00:14.232Z,62.92
2023-03-12T16:02:48.053Z,62.61
2023-03-12T16:05:14.880Z,62.75
2023-03-12T16:07:41.552Z,63.31
2023-03-12T16:10:14.094Z,63.39
2023-03-12T16:12:42.050Z,63.45
2023-03-12T16:15:14.859Z,63.19
2023-03-12T16:17:42.021Z,63.05
2023-03-12T16:20:14.082Z,63.23
2023-03-12T16:22:41.578Z,63.63
2023-03-12T16:25:10.636Z,63.78
2023-03-12T16:27:44.238Z,64.14
2023-03-12T16:30:22.762Z,63.94
2023-03-12T16:32:49.377Z,64.13
2023-03-12T16:35:18.714Z,63.93
2023-03-12T16:37:46.416Z,63.92
2023-03-12T16:40:24.037Z,64.05
2023-03-12T16:43:02.927Z,64.10
2023-03-12T16:45:31.577Z,64.84
2023-03-12T16:48:01.418Z,64.61
2023-03-12T16:50:28.488Z,64.28
2023-03-12T16:52:55.728Z,64.52
2023-03-12T16:55:26.245Z,64.48
2023-03-12T16:58:00.433Z,64.51
2023-03-12T17:00:30.296Z,64.76
2023-03-12T17:02:58.093Z,64.56
2023-03-12T17:05:30.185Z,64.76
2023-03-12T17:07:58.350Z,64.84
2023-03-12T17:10:26.289Z,64.84
2023-03-12T17:12:53.496Z,64.84
2023-03-12T17:15:26.174Z,65.58
2023-03-12T17:17:55.621Z,65.35
2023-03-12T17:20:24.305Z,65.35
2023-03-12T17:22:50.915Z,65.32
2023-03-12T17:25:28.784Z,65.65
2023-03-12T17:27:59.163Z,65.68
2023-03-12T17:30:28.125Z,65.49
2023-03-12T17:33:01.594Z,65.47
2023-03-12T17:35:28.501Z,65.88
2023-03-12T17:37:55.070Z,65.93
2023-03-12T17:40:22.122Z,66.31
2023-03-12T17:42:48.885Z,67.31
2023-03-12T17:45:15.610Z,66.93
2023-03-12T17:47:42.562Z,67.22
2023-03-12T17:50:09.906Z,67.09
2023-03-12T17:52:36.611Z,67.39
2023-03-12T17:55:03.566Z,67.85
2023-03-12T17:57:30.416Z,68.21
2023-03-12T17:59:57.119Z,67.83
2023-03-12T18:02:24.654Z,68.81
2023-03-12T18:04:51.555Z,68.34
2023-03-12T18:07:18.418Z,69.32
2023-03-12T18:09:45.385Z,69.35
2023-03-12T18:12:13.094Z,69.80
2023-03-12T18:14:39.819Z,69.27
2023-03-12T18:17:06.558Z,70.72
2023-03-12T18:19:35.478Z,71.64
2023-03-12T18:22:02.744Z,72.36
2023-03-12T18:24:29.553Z,72.61
2023-03-12T18:26:56.452Z,72.57
2023-03-12T18:29:23.317Z,72.95
2023-03-12T18:31:50.064Z,72.56
2023-03-12T18:34:16.827Z,72.93
2023-03-12T18:36:43.780Z,73.52
2023-03-12T18:39:10.535Z,73.22
2023-03-12T18:41:39.437Z,73.32
2023-03-12T18:44:07.453Z,73.17
2023-03-12T18:46:34.267Z,73.53
2023-03-12T18:49:05.735Z,74.10
2023-03-12T18:51:32.355Z,73.98
2023-03-12T18:53:59.184Z,74.65
2023-03-12T18:56:25.864Z,74.58
2023-03-12T18:58:52.615Z,75.04
2023-03-12T19:01:19.549Z,75.18
2023-03-12T19:03:46.236Z,74.46
2023-03-12T19:06:15.777Z,74.57
2023-03-12T19:08:43.025Z,74.18
2023-03-12T19:11:12.425Z,75.34
2023-03-12T19:13:39.956Z,75.13
2023-03-12T19:16:09.670Z,76.25
2023-03-12T19:18:39.074Z,76.45
2023-03-12T19:21:07.989Z,76.02
2023-03-12T19:23:35.602Z,76.32
2023-03-12T19:26:02.418Z,77.01
2023-03-12T19:28:29.799Z,77.16
2023-03-12T19:31:04.214Z,77.51
2023-03-12T19:33:31.135Z,77.22
2023-03-12T19:35:58.056Z,77.93
2023-03-12T19:38:24.800Z,78.18
2023-03-12T19:40:55.160Z,79.18
2023-03-12T19:43:23.023Z,79.05
2023-03-12T19:45:49.790Z,79.08
2023-03-12T19:48:16.700Z,79.19
2023-03-12T19:50:46.585Z,79.34
2023-03-12T19:53:13.760Z,79.12
2023-03-12T19:55:40.314Z,79.52
2023-03-12T19:58:08.347Z,79.52
2023-03-12T20:00:34.985Z,79.82
2023-03-12T20:03:01.811Z,79.15
2023-03-12T20:05:28.534Z,79.41
2023-03-12T20:07:55.136Z,79.45
2023-03-12T20:10:22.496Z,79.87
2023-03-12T20:12:49.044Z,80.04
2023-03-12T20:15:15.780Z,79.73
2023-03-12T20:17:42.515Z,80.24
2023-03-12T20:20:09.881Z,80.26
2023-03-12T20:22:36.781Z,80.52
2023-03-12T20:25:05.668Z,80.19
2023-03-12T20:27:34.190Z,80.68
2023-03-12T20:30:00.958Z,80.46
2023-03-12T20:32:28.889Z,80.42
2023-03-12T20:34:55.555Z,80.58
2023-03-12T20:37:22.316Z,80.46
2023-03-12T20:39:48.904Z,80.40
2023-03-12T20:42:15.914Z,81.08
2023-03-12T20:44:42.687Z,81.08
2023-03-12T20:47:09.221Z,80.62
2023-03-12T20:49:35.891Z,80.47
2023-03-12T20:52:02.829Z,80.75
2023-03-12T20:54:29.687Z,80.99
2023-03-12T20:56:56.529Z,81.53
2023-03-12T20:59:23.344Z,81.29
2023-03-12T21:01:50.005Z,81.51
2023-03-12T21:04:16.657Z,81.13
2023-03-12T21:06:44.705Z,81.36
2023-03-12T21:09:11.270Z,81.47
2023-03-12T21:11:39.979Z,81.24
2023-03-12T21:14:06.710Z,80.99
2023-03-12T21:16:33.324Z,81.27
2023-03-12T21:19:00.189Z,81.62
2023-03-12T21:21:26.757Z,81.34
2023-03-12T21:23:53.549Z,81.28
2023-03-12T21:26:20.586Z,80.78
2023-03-12T21:28:47.128Z,81.21
2023-03-12T21:31:16.202Z,82.06
2023-03-12T21:33:43.089Z,81.83
2023-03-12T21:36:13.243Z,82.02
2023-03-12T21:38:42.658Z,81.76
2023-03-12T21:41:14.936Z,82.68
2023-03-12T21:43:42.658Z,82.59
2023-03-12T21:46:14.833Z,82.32
2023-03-12T21:48:45.052Z,82.71
2023-03-12T21:51:13.900Z,82.22
2023-03-12T21:53:40.782Z,82.37
2023-03-12T21:56:09.065Z,82.64
2023-03-12T21:58:36.464Z,83.04
2023-03-12T22:01:09.076Z,82.85
2023-03-12T22:03:36.568Z,82.93
2023-03-12T22:06:03.787Z,83.28
2023-03-12T22:08:31.485Z,84.17
2023-03-12T22:10:58.462Z,83.96
2023-03-12T22:13:25.123Z,84.21
2023-03-12T22:16:18.079Z,84.59
2023-03-12T22:18:46.422Z,84.53
2023-03-12T22:21:22.106Z,85.66
2023-03-12T22:23:54.100Z,85.63
2023-03-12T22:26:22.570Z,84.79
2023-03-12T22:28:52.851Z,85.18
2023-03-12T22:31:20.980Z,85.51
2023-03-12T22:33:47.854Z,85.20
2023-03-12T22:36:15.783Z,85.13
2023-03-12T22:38:42.782Z,85.49
2023-03-12T22:41:12.570Z,85.70
2023-03-12T22:43:39.139Z,84.39
2023-03-12T22:46:05.904Z,84.34
2023-03-12T22:48:32.753Z,84.76
2023-03-12T22:50:59.536Z,84.84
2023-03-12T22:53:26.255Z,84.94
2023-03-12T22:55:58.387Z,84.65
2023-03-12T22:58:25.720Z,85.30
2023-03-12T23:00:59.073Z,85.88
2023-03-12T23:03:25.869Z,86.29
2023-03-12T23:05:52.691Z,86.77
2023-03-12T23:08:19.296Z,87.49
2023-03-12T23:11:12.104Z,87.46
2023-03-12T23:13:41.595Z,87.72
2023-03-12T23:16:11.264Z,87.63
2023-03-12T23:18:38.402Z,87.22
2023-03-12T23:21:11.255Z,87.20
2023-03-12T23:23:45.058Z,86.36
2023-03-12T23:26:15.474Z,86.21
2023-03-12T23:28:42.625Z,86.31
2023-03-12T23:31:10.726Z,85.92
2023-03-12T23:33:37.679Z,85.93
2023-03-12T23:36:10.882Z,85.35
2023-03-12T23:38:38.007Z,85.27
2023-03-12T23:41:07.177Z,85.55
2023-03-12T23:43:34.558Z,85.59
2023-03-12T23:46:02.939Z,85.95
2023-03-12T23:48:31.853Z,85.85
2023-03-12T23:51:05.842Z,85.36
2023-03-12T23:53:33.288Z,84.31
2023-03-12T23:56:01.372Z,84.37
2023-03-12T23:58:28.891Z,84.41
